Aeroporto :
LOGIN :

Iscrizione | Disclaimer

   EN    FR    IT 

 










Sommario :    VFR   VFR Marginale   IFR   IFR Intensivo   IFR Molto Intensivo
Visibilità : 
Base nubi : 
>= 8 km
>= 3000ft
5 / 8 km
1000 / 3000 ft
1500m / 5 km
500 / 1000 ft
800 / 1500m
200 / 500 ft
< 800m
< 200 ft
Simboli :   Temporali  Nebbia  Neve Forte  Precipitazioni Forti  Vento > 20 kt
SIGMETs :   Varie  Temporali  Ghiacco  Turbolenza  Onda orograficha  Ceneri Vulcaniche






- Altitudine del aeroporto : -11 ft
- Codice IATA : AMS


EHAM - Amsterdam Schiphol

ULTIMO METAR :
  • 201425Z 04006KT 010V080 9999 -SHRA FEW020 FEW025CB 19/15 Q1010 TEMPO 7000

METARs OBSOLETI :
  • 201355Z 04009KT 010V080 9999 VCSH FEW025 SCT030CB 19/13 Q1010 TEMPO 7000 SHRA
  • 201325Z 10007KT 050V140 9999 -SHRA SCT030CB 20/14 Q1010 TEMPO 7000
  • 201255Z 09006KT 050V140 9999 -SHRA FEW022 FEW025CB SCT030 19/14 Q1011 TEMPO 7000
  • 201225Z 05008KT 020V080 9999 VCSH FEW020 FEW025CB SCT028 19/13 Q1011 TEMPO 7000 SHRA
  • 201155Z 02008KT 340V050 9999 VCSH FEW017 SCT020 FEW030CB 19/14 Q1011 TEMPO 7000 SHRA
  • 201125Z 35010KT 320V020 9999 SCT018 19/15 Q1011 NOSIG
  • 201055Z 34009KT 280V020 9999 SCT016 19/16 Q1011 NOSIG
  • 201025Z 34008KT 310V020 9999 FEW010 SCT016 18/15 Q1012 NOSIG
  • 200955Z 33007KT 300V010 9999 VCSH FEW009 BKN014 FEW030CB 17/15 Q1012 BECMG SCT018 TEMPO 6000 SHRA

TAF TAF EHAM
Valido dal 20 a 12 ore il 21 a 18 ore UTC


201104Z 2012/2118 36010KT 9999 SCT020
TEMPO 2012/2018 6000 SHRA SCT030CB
PROB30
TEMPO 2012/2017 06015G25KT 4000 TSRA SCT015 SCT025CB BKN040
BECMG 2017/2020 06007KT
PROB40 2022/2106 5000 BR MIFG
TEMPO 2114/2118 4000 SHRA SCT015 SCT025CB BKN040
PROB40
TEMPO 2114/2118 VRB23G35KT 2500 TSRAGR BKN012 BKN020CB



MetMap, La meteo Aeronautica in un colpo d'occhio ! - Copyright ORBIFLY Dicembre 2007 - Disclaimer

ORBIFLY MET'MAP TEAM :

Programmazione e sviluppo : Alexandra Zaïnal
Concezione : Baudouin d'Aumeries
Supporto tecnico e logistico : Manuel Goepfert
Aiuto : Marc-Olivier Méhu
Aiuto per la traduzione : Arnaldo La Scala




FONTI E CREDITI :

   NOAA